sensor_id;sensor_type;location;lat;lon;timestamp;P1;durP1;ratioP1;P2;durP2;ratioP2
83362;SDS011;73275;50.882;5.984;2024-03-23T00:54:18;7.23;;;1.90;;
83362;SDS011;73275;50.882;5.984;2024-03-23T00:56:43;12.23;;;2.77;;
83362;SDS011;73275;50.882;5.984;2024-03-23T00:59:08;8.13;;;1.67;;
83362;SDS011;73275;50.882;5.984;2024-03-23T01:01:33;9.20;;;1.57;;
83362;SDS011;73275;50.882;5.984;2024-03-23T01:03:59;4.77;;;1.03;;
83362;SDS011;73275;50.882;5.984;2024-03-23T01:06:24;4.90;;;1.67;;
83362;SDS011;73275;50.882;5.984;2024-03-23T01:08:49;10.20;;;1.17;;
83362;SDS011;73275;50.882;5.984;2024-03-23T01:11:14;7.60;;;1.00;;
83362;SDS011;73275;50.882;5.984;2024-03-23T01:13:40;11.07;;;1.40;;
83362;SDS011;73275;50.882;5.984;2024-03-23T01:16:05;7.13;;;1.60;;
83362;SDS011;73275;50.882;5.984;2024-03-23T01:18:30;6.07;;;1.07;;
83362;SDS011;73275;50.882;5.984;2024-03-23T01:20:55;9.17;;;1.67;;
83362;SDS011;73275;50.882;5.984;2024-03-23T01:23:21;7.87;;;1.43;;
83362;SDS011;73275;50.882;5.984;2024-03-23T01:25:52;8.57;;;1.87;;
83362;SDS011;73275;50.882;5.984;2024-03-23T01:28:18;5.30;;;1.15;;
83362;SDS011;73275;50.882;5.984;2024-03-23T01:30:43;7.87;;;1.53;;
83362;SDS011;73275;50.882;5.984;2024-03-23T01:33:09;9.77;;;1.33;;
83362;SDS011;73275;50.882;5.984;2024-03-23T01:35:34;8.90;;;1.40;;
83362;SDS011;73275;50.882;5.984;2024-03-23T01:37:59;5.93;;;1.30;;
83362;SDS011;73275;50.882;5.984;2024-03-23T01:40:24;6.97;;;1.60;;
83362;SDS011;73275;50.882;5.984;2024-03-23T01:43:04;7.65;;;1.33;;
83362;SDS011;73275;50.882;5.984;2024-03-23T01:45:30;5.07;;;1.40;;
83362;SDS011;73275;50.882;5.984;2024-03-23T01:47:56;9.13;;;1.53;;
83362;SDS011;73275;50.882;5.984;2024-03-23T01:50:21;13.30;;;1.83;;
83362;SDS011;73275;50.882;5.984;2024-03-23T01:52:47;6.77;;;1.30;;
83362;SDS011;73275;50.882;5.984;2024-03-23T01:55:12;7.18;;;1.40;;
83362;SDS011;73275;50.882;5.984;2024-03-23T01:57:37;7.17;;;1.20;;
83362;SDS011;73275;50.882;5.984;2024-03-23T02:00:03;11.87;;;1.70;;
83362;SDS011;73275;50.882;5.984;2024-03-23T02:02:28;8.83;;;1.80;;
83362;SDS011;73275;50.882;5.984;2024-03-23T02:04:53;5.30;;;1.30;;
83362;SDS011;73275;50.882;5.984;2024-03-23T02:07:19;7.60;;;1.20;;
83362;SDS011;73275;50.882;5.984;2024-03-23T02:09:44;3.87;;;1.17;;
83362;SDS011;73275;50.882;5.984;2024-03-23T02:12:09;7.43;;;1.47;;
83362;SDS011;73275;50.882;5.984;2024-03-23T02:14:34;9.13;;;1.37;;
83362;SDS011;73275;50.882;5.984;2024-03-23T02:17:00;10.87;;;1.50;;
83362;SDS011;73275;50.882;5.984;2024-03-23T02:19:25;6.83;;;1.40;;
83362;SDS011;73275;50.882;5.984;2024-03-23T02:21:50;11.33;;;1.70;;
83362;SDS011;73275;50.882;5.984;2024-03-23T02:24:15;4.70;;;1.40;;
83362;SDS011;73275;50.882;5.984;2024-03-23T02:26:40;8.33;;;2.13;;
83362;SDS011;73275;50.882;5.984;2024-03-23T02:29:06;6.77;;;1.80;;
83362;SDS011;73275;50.882;5.984;2024-03-23T02:31:31;6.63;;;1.40;;
83362;SDS011;73275;50.882;5.984;2024-03-23T02:33:56;11.30;;;1.87;;
83362;SDS011;73275;50.882;5.984;2024-03-23T02:36:21;9.57;;;1.50;;
83362;SDS011;73275;50.882;5.984;2024-03-23T02:38:47;9.93;;;1.60;;
83362;SDS011;73275;50.882;5.984;2024-03-23T02:41:12;8.33;;;1.83;;
83362;SDS011;73275;50.882;5.984;2024-03-23T02:43:37;7.30;;;1.50;;
83362;SDS011;73275;50.882;5.984;2024-03-23T02:46:02;7.43;;;1.20;;
83362;SDS011;73275;50.882;5.984;2024-03-23T02:48:29;8.05;;;1.30;;
83362;SDS011;73275;50.882;5.984;2024-03-23T02:50:54;8.20;;;1.43;;
83362;SDS011;73275;50.882;5.984;2024-03-23T02:53:19;7.07;;;1.27;;
83362;SDS011;73275;50.882;5.984;2024-03-23T02:55:45;7.97;;;1.60;;
83362;SDS011;73275;50.882;5.984;2024-03-23T02:58:10;9.20;;;1.70;;
83362;SDS011;73275;50.882;5.984;2024-03-23T03:00:35;16.33;;;1.93;;
83362;SDS011;73275;50.882;5.984;2024-03-23T03:03:00;8.13;;;1.70;;
83362;SDS011;73275;50.882;5.984;2024-03-23T03:05:25;7.53;;;1.53;;
83362;SDS011;73275;50.882;5.984;2024-03-23T03:07:51;10.93;;;1.73;;
83362;SDS011;73275;50.882;5.984;2024-03-23T03:10:16;6.00;;;1.47;;
83362;SDS011;73275;50.882;5.984;2024-03-23T03:12:44;9.60;;;1.40;;
83362;SDS011;73275;50.882;5.984;2024-03-23T03:15:09;7.18;;;1.58;;
83362;SDS011;73275;50.882;5.984;2024-03-23T03:17:35;7.40;;;1.10;;
83362;SDS011;73275;50.882;5.984;2024-03-23T03:20:00;5.67;;;1.33;;
83362;SDS011;73275;50.882;5.984;2024-03-23T03:22:25;11.30;;;1.70;;
83362;SDS011;73275;50.882;5.984;2024-03-23T03:24:50;9.40;;;1.40;;
83362;SDS011;73275;50.882;5.984;2024-03-23T03:27:16;8.30;;;1.77;;
83362;SDS011;73275;50.882;5.984;2024-03-23T03:29:41;7.77;;;1.37;;
83362;SDS011;73275;50.882;5.984;2024-03-23T03:32:06;6.03;;;1.40;;
83362;SDS011;73275;50.882;5.984;2024-03-23T03:34:31;6.43;;;1.23;;
83362;SDS011;73275;50.882;5.984;2024-03-23T03:36:57;9.63;;;1.10;;
83362;SDS011;73275;50.882;5.984;2024-03-23T03:39:22;6.37;;;1.10;;
83362;SDS011;73275;50.882;5.984;2024-03-23T03:41:48;7.27;;;1.57;;
83362;SDS011;73275;50.882;5.984;2024-03-23T03:44:13;6.18;;;1.30;;
83362;SDS011;73275;50.882;5.984;2024-03-23T03:46:39;5.80;;;1.60;;
83362;SDS011;73275;50.882;5.984;2024-03-23T03:49:04;5.87;;;1.33;;
83362;SDS011;73275;50.882;5.984;2024-03-23T03:51:30;6.15;;;1.42;;
83362;SDS011;73275;50.882;5.984;2024-03-23T03:53:55;6.07;;;1.63;;
83362;SDS011;73275;50.882;5.984;2024-03-23T03:56:21;11.90;;;2.30;;
83362;SDS011;73275;50.882;5.984;2024-03-23T03:58:47;10.52;;;2.00;;
83362;SDS011;73275;50.882;5.984;2024-03-23T04:01:12;11.17;;;1.53;;
83362;SDS011;73275;50.882;5.984;2024-03-23T04:03:37;9.50;;;1.97;;
83362;SDS011;73275;50.882;5.984;2024-03-23T04:06:08;11.20;;;2.00;;
83362;SDS011;73275;50.882;5.984;2024-03-23T04:08:33;7.20;;;1.90;;
83362;SDS011;73275;50.882;5.984;2024-03-23T04:10:58;9.60;;;2.03;;
83362;SDS011;73275;50.882;5.984;2024-03-23T04:13:24;7.40;;;1.23;;
83362;SDS011;73275;50.882;5.984;2024-03-23T04:15:53;11.37;;;1.67;;
83362;SDS011;73275;50.882;5.984;2024-03-23T04:18:18;9.70;;;1.42;;
83362;SDS011;73275;50.882;5.984;2024-03-23T04:20:43;7.67;;;1.50;;
83362;SDS011;73275;50.882;5.984;2024-03-23T04:23:09;4.00;;;1.57;;
83362;SDS011;73275;50.882;5.984;2024-03-23T04:25:34;7.20;;;1.70;;
83362;SDS011;73275;50.882;5.984;2024-03-23T04:27:59;6.00;;;1.47;;
83362;SDS011;73275;50.882;5.984;2024-03-23T04:30:25;8.97;;;1.83;;
83362;SDS011;73275;50.882;5.984;2024-03-23T04:32:53;6.40;;;1.60;;
83362;SDS011;73275;50.882;5.984;2024-03-23T04:35:18;12.77;;;2.10;;
83362;SDS011;73275;50.882;5.984;2024-03-23T04:37:45;14.48;;;2.85;;
83362;SDS011;73275;50.882;5.984;2024-03-23T04:40:10;8.23;;;2.03;;
83362;SDS011;73275;50.882;5.984;2024-03-23T04:42:36;6.43;;;2.00;;
83362;SDS011;73275;50.882;5.984;2024-03-23T04:45:02;12.32;;;2.83;;
83362;SDS011;73275;50.882;5.984;2024-03-23T04:47:27;11.50;;;2.70;;
83362;SDS011;73275;50.882;5.984;2024-03-23T04:49:53;8.60;;;2.37;;
83362;SDS011;73275;50.882;5.984;2024-03-23T04:52:18;10.47;;;2.87;;
83362;SDS011;73275;50.882;5.984;2024-03-23T04:54:46;10.10;;;2.40;;
83362;SDS011;73275;50.882;5.984;2024-03-23T04:57:11;12.40;;;2.10;;
83362;SDS011;73275;50.882;5.984;2024-03-23T04:59:36;8.40;;;1.80;;
83362;SDS011;73275;50.882;5.984;2024-03-23T05:02:01;9.30;;;2.50;;
83362;SDS011;73275;50.882;5.984;2024-03-23T05:04:27;9.38;;;1.95;;
83362;SDS011;73275;50.882;5.984;2024-03-23T05:06:53;13.60;;;2.43;;
83362;SDS011;73275;50.882;5.984;2024-03-23T05:09:18;5.63;;;1.30;;
83362;SDS011;73275;50.882;5.984;2024-03-23T05:11:45;10.43;;;2.08;;
83362;SDS011;73275;50.882;5.984;2024-03-23T05:14:11;9.67;;;2.13;;
83362;SDS011;73275;50.882;5.984;2024-03-23T05:16:37;10.45;;;1.65;;
83362;SDS011;73275;50.882;5.984;2024-03-23T05:19:02;12.20;;;2.27;;
83362;SDS011;73275;50.882;5.984;2024-03-23T05:21:27;9.60;;;2.23;;
83362;SDS011;73275;50.882;5.984;2024-03-23T05:23:55;9.33;;;2.20;;
83362;SDS011;73275;50.882;5.984;2024-03-23T05:26:21;10.48;;;2.22;;
83362;SDS011;73275;50.882;5.984;2024-03-23T05:28:47;6.97;;;2.10;;
83362;SDS011;73275;50.882;5.984;2024-03-23T05:31:12;13.17;;;2.40;;
83362;SDS011;73275;50.882;5.984;2024-03-23T05:33:40;5.17;;;1.70;;
83362;SDS011;73275;50.882;5.984;2024-03-23T05:36:06;13.02;;;2.30;;
83362;SDS011;73275;50.882;5.984;2024-03-23T05:38:33;8.75;;;2.08;;
83362;SDS011;73275;50.882;5.984;2024-03-23T05:40:59;9.03;;;1.97;;
83362;SDS011;73275;50.882;5.984;2024-03-23T05:43:26;11.45;;;2.22;;
83362;SDS011;73275;50.882;5.984;2024-03-23T05:48:19;14.23;;;2.47;;
83362;SDS011;73275;50.882;5.984;2024-03-23T05:50:44;12.07;;;2.53;;
83362;SDS011;73275;50.882;5.984;2024-03-23T05:53:09;10.40;;;2.63;;
83362;SDS011;73275;50.882;5.984;2024-03-23T05:55:35;8.63;;;2.50;;
83362;SDS011;73275;50.882;5.984;2024-03-23T05:58:02;14.03;;;2.93;;
83362;SDS011;73275;50.882;5.984;2024-03-23T06:00:27;10.30;;;2.33;;
83362;SDS011;73275;50.882;5.984;2024-03-23T06:05:54;13.30;;;2.75;;
83362;SDS011;73275;50.882;5.984;2024-03-23T06:08:22;15.27;;;3.05;;
83362;SDS011;73275;50.882;5.984;2024-03-23T06:10:51;11.68;;;2.80;;
83362;SDS011;73275;50.882;5.984;2024-03-23T06:16:10;14.18;;;3.13;;
83362;SDS011;73275;50.882;5.984;2024-03-23T06:18:35;11.60;;;3.83;;
83362;SDS011;73275;50.882;5.984;2024-03-23T06:21:03;16.03;;;3.20;;
83362;SDS011;73275;50.882;5.984;2024-03-23T06:23:28;16.23;;;3.83;;
83362;SDS011;73275;50.882;5.984;2024-03-23T06:25:54;17.33;;;4.77;;
83362;SDS011;73275;50.882;5.984;2024-03-23T06:31:27;10.55;;;3.03;;
83362;SDS011;73275;50.882;5.984;2024-03-23T06:33:55;10.32;;;3.40;;
83362;SDS011;73275;50.882;5.984;2024-03-23T06:36:21;11.87;;;3.57;;
83362;SDS011;73275;50.882;5.984;2024-03-23T06:38:46;10.18;;;3.65;;
83362;SDS011;73275;50.882;5.984;2024-03-23T06:41:11;11.23;;;3.60;;
83362;SDS011;73275;50.882;5.984;2024-03-23T07:00:50;3.22;;;1.25;;
83362;SDS011;73275;50.882;5.984;2024-03-23T07:27:34;9.77;;;3.17;;
83362;SDS011;73275;50.882;5.984;2024-03-23T07:30:09;17.43;;;4.53;;
83362;SDS011;73275;50.882;5.984;2024-03-23T07:32:37;12.52;;;4.32;;
83362;SDS011;73275;50.882;5.984;2024-03-23T07:35:05;17.45;;;4.40;;
83362;SDS011;73275;50.882;5.984;2024-03-23T07:40:39;13.27;;;4.47;;
83362;SDS011;73275;50.882;5.984;2024-03-23T07:53:36;13.90;;;4.65;;
83362;SDS011;73275;50.882;5.984;2024-03-23T07:56:08;10.73;;;3.78;;
83362;SDS011;73275;50.882;5.984;2024-03-23T07:58:35;14.20;;;4.25;;
83362;SDS011;73275;50.882;5.984;2024-03-23T08:01:05;11.38;;;3.03;;
83362;SDS011;73275;50.882;5.984;2024-03-23T08:03:30;16.37;;;5.03;;
83362;SDS011;73275;50.882;5.984;2024-03-23T08:05:55;13.77;;;3.53;;
83362;SDS011;73275;50.882;5.984;2024-03-23T08:08:21;11.33;;;3.00;;
83362;SDS011;73275;50.882;5.984;2024-03-23T08:10:52;11.37;;;3.83;;
83362;SDS011;73275;50.882;5.984;2024-03-23T08:13:18;14.82;;;3.50;;
83362;SDS011;73275;50.882;5.984;2024-03-23T08:15:43;13.63;;;3.37;;
83362;SDS011;73275;50.882;5.984;2024-03-23T08:18:11;11.07;;;2.63;;
83362;SDS011;73275;50.882;5.984;2024-03-23T08:20:37;9.98;;;2.60;;
83362;SDS011;73275;50.882;5.984;2024-03-23T08:23:02;10.97;;;2.40;;
83362;SDS011;73275;50.882;5.984;2024-03-23T08:25:30;7.77;;;1.93;;
83362;SDS011;73275;50.882;5.984;2024-03-23T08:28:07;9.60;;;2.70;;
83362;SDS011;73275;50.882;5.984;2024-03-23T08:33:54;6.13;;;2.05;;
83362;SDS011;73275;50.882;5.984;2024-03-23T08:36:25;12.20;;;3.23;;
83362;SDS011;73275;50.882;5.984;2024-03-23T08:38:53;7.65;;;2.53;;
83362;SDS011;73275;50.882;5.984;2024-03-23T08:44:50;11.05;;;2.50;;
83362;SDS011;73275;50.882;5.984;2024-03-23T08:47:18;16.70;;;3.35;;
83362;SDS011;73275;50.882;5.984;2024-03-23T08:49:46;8.33;;;2.27;;
83362;SDS011;73275;50.882;5.984;2024-03-23T08:55:34;10.65;;;2.80;;
83362;SDS011;73275;50.882;5.984;2024-03-23T08:58:00;8.05;;;1.85;;
83362;SDS011;73275;50.882;5.984;2024-03-23T09:00:26;13.43;;;2.43;;
83362;SDS011;73275;50.882;5.984;2024-03-23T09:02:56;11.07;;;1.88;;
83362;SDS011;73275;50.882;5.984;2024-03-23T09:08:52;8.07;;;1.52;;
83362;SDS011;73275;50.882;5.984;2024-03-23T09:14:10;8.73;;;2.10;;
83362;SDS011;73275;50.882;5.984;2024-03-23T09:16:36;6.33;;;1.80;;
83362;SDS011;73275;50.882;5.984;2024-03-23T09:19:01;10.47;;;1.87;;
83362;SDS011;73275;50.882;5.984;2024-03-23T09:21:26;8.43;;;1.93;;
83362;SDS011;73275;50.882;5.984;2024-03-23T09:23:51;12.23;;;2.57;;
83362;SDS011;73275;50.882;5.984;2024-03-23T09:26:17;13.60;;;2.20;;
83362;SDS011;73275;50.882;5.984;2024-03-23T09:28:42;10.32;;;1.80;;
83362;SDS011;73275;50.882;5.984;2024-03-23T09:31:08;7.43;;;1.53;;
83362;SDS011;73275;50.882;5.984;2024-03-23T09:33:34;4.45;;;1.23;;
83362;SDS011;73275;50.882;5.984;2024-03-23T09:36:03;6.90;;;1.60;;
83362;SDS011;73275;50.882;5.984;2024-03-23T09:38:29;4.47;;;1.27;;
83362;SDS011;73275;50.882;5.984;2024-03-23T09:40:54;10.07;;;1.77;;
83362;SDS011;73275;50.882;5.984;2024-03-23T09:43:19;4.93;;;1.73;;
83362;SDS011;73275;50.882;5.984;2024-03-23T09:45:45;4.80;;;1.17;;
83362;SDS011;73275;50.882;5.984;2024-03-23T09:48:11;8.68;;;1.60;;
83362;SDS011;73275;50.882;5.984;2024-03-23T09:50:37;5.17;;;1.27;;
83362;SDS011;73275;50.882;5.984;2024-03-23T09:53:03;3.88;;;0.82;;
83362;SDS011;73275;50.882;5.984;2024-03-23T09:55:28;2.50;;;1.00;;
83362;SDS011;73275;50.882;5.984;2024-03-23T09:57:53;6.40;;;1.20;;
83362;SDS011;73275;50.882;5.984;2024-03-23T10:00:19;1.53;;;0.80;;
83362;SDS011;73275;50.882;5.984;2024-03-23T10:02:45;5.40;;;1.00;;
83362;SDS011;73275;50.882;5.984;2024-03-23T10:05:19;4.73;;;1.03;;
83362;SDS011;73275;50.882;5.984;2024-03-23T10:07:45;5.03;;;1.10;;
83362;SDS011;73275;50.882;5.984;2024-03-23T10:10:10;7.30;;;1.20;;
83362;SDS011;73275;50.882;5.984;2024-03-23T10:12:35;4.30;;;0.90;;
83362;SDS011;73275;50.882;5.984;2024-03-23T10:15:13;4.30;;;1.37;;
83362;SDS011;73275;50.882;5.984;2024-03-23T10:17:42;5.32;;;1.38;;
83362;SDS011;73275;50.882;5.984;2024-03-23T10:20:09;8.13;;;1.25;;
83362;SDS011;73275;50.882;5.984;2024-03-23T10:22:36;7.53;;;1.98;;
83362;SDS011;73275;50.882;5.984;2024-03-23T10:25:09;7.50;;;1.65;;
83362;SDS011;73275;50.882;5.984;2024-03-23T10:27:35;7.53;;;1.40;;
83362;SDS011;73275;50.882;5.984;2024-03-23T10:30:11;3.20;;;0.88;;
83362;SDS011;73275;50.882;5.984;2024-03-23T10:32:45;2.90;;;0.90;;
83362;SDS011;73275;50.882;5.984;2024-03-23T10:35:18;3.45;;;1.27;;
83362;SDS011;73275;50.882;5.984;2024-03-23T10:37:49;9.27;;;1.38;;
83362;SDS011;73275;50.882;5.984;2024-03-23T10:40:14;6.47;;;0.97;;
83362;SDS011;73275;50.882;5.984;2024-03-23T10:42:40;6.87;;;1.20;;
83362;SDS011;73275;50.882;5.984;2024-03-23T10:45:05;4.37;;;1.20;;
83362;SDS011;73275;50.882;5.984;2024-03-23T10:47:39;4.35;;;1.25;;
83362;SDS011;73275;50.882;5.984;2024-03-23T10:50:05;4.03;;;1.07;;
83362;SDS011;73275;50.882;5.984;2024-03-23T10:52:31;5.32;;;1.25;;
83362;SDS011;73275;50.882;5.984;2024-03-23T10:54:56;3.92;;;1.30;;
83362;SDS011;73275;50.882;5.984;2024-03-23T10:57:26;5.22;;;1.25;;
83362;SDS011;73275;50.882;5.984;2024-03-23T10:59:54;4.73;;;1.07;;
83362;SDS011;73275;50.882;5.984;2024-03-23T11:02:21;5.43;;;1.50;;
83362;SDS011;73275;50.882;5.984;2024-03-23T11:04:47;3.67;;;1.20;;
83362;SDS011;73275;50.882;5.984;2024-03-23T11:09:49;4.37;;;1.20;;
83362;SDS011;73275;50.882;5.984;2024-03-23T11:17:34;3.47;;;1.23;;
83362;SDS011;73275;50.882;5.984;2024-03-23T11:20:00;8.97;;;1.50;;
83362;SDS011;73275;50.882;5.984;2024-03-23T11:25:24;3.30;;;0.77;;
83362;SDS011;73275;50.882;5.984;2024-03-23T11:27:56;4.78;;;1.48;;
83362;SDS011;73275;50.882;5.984;2024-03-23T11:30:26;3.90;;;1.15;;
83362;SDS011;73275;50.882;5.984;2024-03-23T11:32:52;4.20;;;0.98;;
83362;SDS011;73275;50.882;5.984;2024-03-23T11:35:33;1.27;;;0.50;;
83362;SDS011;73275;50.882;5.984;2024-03-23T11:38:11;0.77;;;0.30;;
83362;SDS011;73275;50.882;5.984;2024-03-23T11:40:44;1.02;;;0.52;;
83362;SDS011;73275;50.882;5.984;2024-03-23T11:43:10;1.50;;;0.60;;
83362;SDS011;73275;50.882;5.984;2024-03-23T11:45:42;1.90;;;0.40;;
83362;SDS011;73275;50.882;5.984;2024-03-23T11:48:10;1.27;;;0.30;;
83362;SDS011;73275;50.882;5.984;2024-03-23T11:50:37;1.23;;;0.57;;
83362;SDS011;73275;50.882;5.984;2024-03-23T11:53:08;3.42;;;0.52;;
83362;SDS011;73275;50.882;5.984;2024-03-23T11:55:42;2.72;;;0.70;;
83362;SDS011;73275;50.882;5.984;2024-03-23T11:58:07;3.95;;;0.77;;
83362;SDS011;73275;50.882;5.984;2024-03-23T12:00:33;3.30;;;0.90;;
83362;SDS011;73275;50.882;5.984;2024-03-23T12:03:02;2.67;;;0.73;;
83362;SDS011;73275;50.882;5.984;2024-03-23T12:05:27;4.38;;;1.10;;
83362;SDS011;73275;50.882;5.984;2024-03-23T12:07:53;4.40;;;1.10;;
83362;SDS011;73275;50.882;5.984;2024-03-23T12:10:19;3.50;;;0.90;;
83362;SDS011;73275;50.882;5.984;2024-03-23T12:12:44;4.40;;;0.88;;
83362;SDS011;73275;50.882;5.984;2024-03-23T12:15:09;3.70;;;0.83;;
83362;SDS011;73275;50.882;5.984;2024-03-23T12:17:36;2.45;;;1.27;;
83362;SDS011;73275;50.882;5.984;2024-03-23T12:20:01;7.23;;;1.20;;
83362;SDS011;73275;50.882;5.984;2024-03-23T12:22:26;2.87;;;0.90;;
83362;SDS011;73275;50.882;5.984;2024-03-23T12:24:52;2.53;;;0.93;;
83362;SDS011;73275;50.882;5.984;2024-03-23T12:27:17;3.10;;;1.10;;
83362;SDS011;73275;50.882;5.984;2024-03-23T12:29:42;4.07;;;1.30;;
83362;SDS011;73275;50.882;5.984;2024-03-23T12:32:12;5.28;;;1.35;;
83362;SDS011;73275;50.882;5.984;2024-03-23T12:34:37;5.53;;;1.92;;
83362;SDS011;73275;50.882;5.984;2024-03-23T12:37:02;1.60;;;1.00;;
83362;SDS011;73275;50.882;5.984;2024-03-23T12:39:27;5.20;;;1.43;;
83362;SDS011;73275;50.882;5.984;2024-03-23T12:41:53;3.67;;;1.10;;
83362;SDS011;73275;50.882;5.984;2024-03-23T12:44:18;3.73;;;1.17;;
83362;SDS011;73275;50.882;5.984;2024-03-23T12:46:44;3.90;;;1.53;;
83362;SDS011;73275;50.882;5.984;2024-03-23T12:49:09;1.90;;;0.97;;
83362;SDS011;73275;50.882;5.984;2024-03-23T12:51:34;3.83;;;1.00;;
83362;SDS011;73275;50.882;5.984;2024-03-23T12:54:00;2.73;;;0.80;;
83362;SDS011;73275;50.882;5.984;2024-03-23T12:56:25;2.00;;;0.83;;
83362;SDS011;73275;50.882;5.984;2024-03-23T12:58:50;1.70;;;0.83;;
83362;SDS011;73275;50.882;5.984;2024-03-23T13:01:19;3.20;;;1.17;;
83362;SDS011;73275;50.882;5.984;2024-03-23T13:03:47;2.95;;;0.70;;
83362;SDS011;73275;50.882;5.984;2024-03-23T13:06:12;2.00;;;0.90;;
83362;SDS011;73275;50.882;5.984;2024-03-23T13:08:38;4.20;;;0.90;;
83362;SDS011;73275;50.882;5.984;2024-03-23T13:11:03;2.27;;;1.07;;
83362;SDS011;73275;50.882;5.984;2024-03-23T13:13:29;3.33;;;1.00;;
83362;SDS011;73275;50.882;5.984;2024-03-23T13:15:56;2.03;;;1.10;;
83362;SDS011;73275;50.882;5.984;2024-03-23T13:18:21;2.17;;;0.70;;
83362;SDS011;73275;50.882;5.984;2024-03-23T13:20:46;2.10;;;0.63;;
83362;SDS011;73275;50.882;5.984;2024-03-23T13:23:12;2.63;;;0.70;;
83362;SDS011;73275;50.882;5.984;2024-03-23T13:25:38;2.77;;;0.90;;
83362;SDS011;73275;50.882;5.984;2024-03-23T13:28:03;3.57;;;0.80;;
83362;SDS011;73275;50.882;5.984;2024-03-23T13:30:29;2.85;;;0.75;;
83362;SDS011;73275;50.882;5.984;2024-03-23T13:32:54;3.10;;;0.80;;
83362;SDS011;73275;50.882;5.984;2024-03-23T13:35:19;3.90;;;1.00;;
83362;SDS011;73275;50.882;5.984;2024-03-23T13:37:45;4.60;;;1.10;;
83362;SDS011;73275;50.882;5.984;2024-03-23T13:40:10;5.47;;;0.90;;
83362;SDS011;73275;50.882;5.984;2024-03-23T13:42:35;5.13;;;0.98;;
83362;SDS011;73275;50.882;5.984;2024-03-23T13:45:02;5.20;;;1.10;;
83362;SDS011;73275;50.882;5.984;2024-03-23T13:47:27;2.60;;;0.60;;
83362;SDS011;73275;50.882;5.984;2024-03-23T13:49:53;3.70;;;1.03;;
83362;SDS011;73275;50.882;5.984;2024-03-23T13:52:18;1.37;;;0.80;;
83362;SDS011;73275;50.882;5.984;2024-03-23T13:54:47;1.38;;;0.55;;
83362;SDS011;73275;50.882;5.984;2024-03-23T13:57:13;3.23;;;0.90;;
83362;SDS011;73275;50.882;5.984;2024-03-23T13:59:38;7.90;;;0.98;;
83362;SDS011;73275;50.882;5.984;2024-03-23T14:02:03;1.73;;;0.73;;
83362;SDS011;73275;50.882;5.984;2024-03-23T14:04:29;3.97;;;1.10;;
83362;SDS011;73275;50.882;5.984;2024-03-23T14:06:54;1.90;;;1.00;;
83362;SDS011;73275;50.882;5.984;2024-03-23T14:09:19;4.13;;;1.40;;
83362;SDS011;73275;50.882;5.984;2024-03-23T14:11:50;4.00;;;1.35;;
83362;SDS011;73275;50.882;5.984;2024-03-23T14:14:16;2.20;;;1.07;;
83362;SDS011;73275;50.882;5.984;2024-03-23T14:16:42;3.13;;;0.65;;
83362;SDS011;73275;50.882;5.984;2024-03-23T14:19:07;4.27;;;0.77;;
83362;SDS011;73275;50.882;5.984;2024-03-23T14:21:32;2.73;;;0.87;;
83362;SDS011;73275;50.882;5.984;2024-03-23T14:23:59;3.43;;;1.17;;
83362;SDS011;73275;50.882;5.984;2024-03-23T14:26:26;2.08;;;0.85;;
83362;SDS011;73275;50.882;5.984;2024-03-23T14:28:52;1.45;;;0.85;;
83362;SDS011;73275;50.882;5.984;2024-03-23T14:31:17;2.77;;;1.13;;
83362;SDS011;73275;50.882;5.984;2024-03-23T14:33:43;2.92;;;1.05;;
83362;SDS011;73275;50.882;5.984;2024-03-23T14:36:12;3.75;;;1.23;;
83362;SDS011;73275;50.882;5.984;2024-03-23T14:38:38;4.77;;;1.20;;
83362;SDS011;73275;50.882;5.984;2024-03-23T14:41:04;3.22;;;0.80;;
83362;SDS011;73275;50.882;5.984;2024-03-23T14:43:29;4.40;;;0.90;;
83362;SDS011;73275;50.882;5.984;2024-03-23T14:46:08;1.47;;;0.80;;
83362;SDS011;73275;50.882;5.984;2024-03-23T14:48:34;5.10;;;1.10;;
83362;SDS011;73275;50.882;5.984;2024-03-23T14:51:00;2.10;;;0.77;;
83362;SDS011;73275;50.882;5.984;2024-03-23T14:53:29;5.27;;;1.13;;
83362;SDS011;73275;50.882;5.984;2024-03-23T14:55:55;2.58;;;0.90;;
83362;SDS011;73275;50.882;5.984;2024-03-23T14:58:20;2.60;;;0.95;;
83362;SDS011;73275;50.882;5.984;2024-03-23T15:00:46;2.47;;;0.80;;
83362;SDS011;73275;50.882;5.984;2024-03-23T15:03:12;4.33;;;0.83;;
83362;SDS011;73275;50.882;5.984;2024-03-23T15:05:37;2.45;;;0.93;;
83362;SDS011;73275;50.882;5.984;2024-03-23T15:08:03;2.37;;;0.80;;
83362;SDS011;73275;50.882;5.984;2024-03-23T15:10:28;2.57;;;0.97;;
83362;SDS011;73275;50.882;5.984;2024-03-23T15:12:54;5.10;;;1.00;;
83362;SDS011;73275;50.882;5.984;2024-03-23T15:15:20;3.83;;;0.90;;
83362;SDS011;73275;50.882;5.984;2024-03-23T15:17:45;3.67;;;0.93;;
83362;SDS011;73275;50.882;5.984;2024-03-23T15:20:11;4.20;;;1.00;;
83362;SDS011;73275;50.882;5.984;2024-03-23T15:22:37;5.63;;;1.23;;
83362;SDS011;73275;50.882;5.984;2024-03-23T15:25:02;1.73;;;0.90;;
83362;SDS011;73275;50.882;5.984;2024-03-23T15:27:28;3.63;;;0.93;;
83362;SDS011;73275;50.882;5.984;2024-03-23T15:29:53;3.07;;;1.50;;
83362;SDS011;73275;50.882;5.984;2024-03-23T15:32:21;3.17;;;1.13;;
83362;SDS011;73275;50.882;5.984;2024-03-23T15:34:47;4.20;;;1.47;;
83362;SDS011;73275;50.882;5.984;2024-03-23T15:37:13;3.47;;;1.17;;
83362;SDS011;73275;50.882;5.984;2024-03-23T15:39:39;14.20;;;1.92;;
83362;SDS011;73275;50.882;5.984;2024-03-23T15:42:06;3.30;;;1.33;;
83362;SDS011;73275;50.882;5.984;2024-03-23T15:44:32;3.97;;;1.70;;
83362;SDS011;73275;50.882;5.984;2024-03-23T15:46:57;3.60;;;1.10;;
83362;SDS011;73275;50.882;5.984;2024-03-23T15:49:23;7.30;;;1.20;;
83362;SDS011;73275;50.882;5.984;2024-03-23T15:51:49;3.47;;;0.90;;
83362;SDS011;73275;50.882;5.984;2024-03-23T15:54:14;4.17;;;1.17;;
83362;SDS011;73275;50.882;5.984;2024-03-23T15:56:40;2.17;;;0.90;;
83362;SDS011;73275;50.882;5.984;2024-03-23T15:59:05;2.77;;;1.10;;
83362;SDS011;73275;50.882;5.984;2024-03-23T16:01:32;3.25;;;1.35;;
83362;SDS011;73275;50.882;5.984;2024-03-23T16:04:01;3.47;;;1.00;;
83362;SDS011;73275;50.882;5.984;2024-03-23T16:06:26;5.25;;;1.20;;
83362;SDS011;73275;50.882;5.984;2024-03-23T16:08:52;7.07;;;1.10;;
83362;SDS011;73275;50.882;5.984;2024-03-23T16:11:18;3.97;;;1.10;;
83362;SDS011;73275;50.882;5.984;2024-03-23T16:13:43;3.00;;;1.10;;
83362;SDS011;73275;50.882;5.984;2024-03-23T16:16:09;2.50;;;1.07;;
83362;SDS011;73275;50.882;5.984;2024-03-23T16:18:37;4.43;;;0.90;;
83362;SDS011;73275;50.882;5.984;2024-03-23T16:21:06;1.93;;;0.60;;
83362;SDS011;73275;50.882;5.984;2024-03-23T16:23:32;6.15;;;1.10;;
83362;SDS011;73275;50.882;5.984;2024-03-23T16:25:58;3.95;;;0.90;;
83362;SDS011;73275;50.882;5.984;2024-03-23T16:28:33;4.07;;;1.10;;
83362;SDS011;73275;50.882;5.984;2024-03-23T16:31:00;5.60;;;1.07;;
83362;SDS011;73275;50.882;5.984;2024-03-23T16:33:32;5.05;;;1.17;;
83362;SDS011;73275;50.882;5.984;2024-03-23T16:38:30;5.60;;;0.90;;
83362;SDS011;73275;50.882;5.984;2024-03-23T16:41:00;4.00;;;1.00;;
83362;SDS011;73275;50.882;5.984;2024-03-23T16:43:26;3.00;;;0.83;;
83362;SDS011;73275;50.882;5.984;2024-03-23T16:45:59;5.20;;;1.20;;
83362;SDS011;73275;50.882;5.984;2024-03-23T16:48:26;5.55;;;0.93;;
83362;SDS011;73275;50.882;5.984;2024-03-23T16:50:51;2.30;;;0.80;;
83362;SDS011;73275;50.882;5.984;2024-03-23T16:53:17;6.47;;;0.93;;
83362;SDS011;73275;50.882;5.984;2024-03-23T16:55:43;5.13;;;1.13;;
83362;SDS011;73275;50.882;5.984;2024-03-23T16:58:08;4.05;;;0.80;;
83362;SDS011;73275;50.882;5.984;2024-03-23T17:00:34;3.80;;;0.90;;
83362;SDS011;73275;50.882;5.984;2024-03-23T17:03:01;2.70;;;1.20;;
83362;SDS011;73275;50.882;5.984;2024-03-23T17:05:26;3.80;;;0.85;;
83362;SDS011;73275;50.882;5.984;2024-03-23T17:07:52;2.67;;;0.90;;
83362;SDS011;73275;50.882;5.984;2024-03-23T17:10:18;3.83;;;0.90;;